sensor_id;sensor_type;location;lat;lon;timestamp;P1;durP1;ratioP1;P2;durP2;ratioP2
31676;SDS011;18385;51.572;6.578;2022-09-13T00:01:16;4.93;;;2.92;;
31676;SDS011;18385;51.572;6.578;2022-09-13T00:03:42;6.50;;;3.17;;
31676;SDS011;18385;51.572;6.578;2022-09-13T00:06:12;6.75;;;3.58;;
31676;SDS011;18385;51.572;6.578;2022-09-13T00:08:40;4.72;;;3.22;;
31676;SDS011;18385;51.572;6.578;2022-09-13T00:11:06;7.97;;;3.63;;
31676;SDS011;18385;51.572;6.578;2022-09-13T00:13:38;5.15;;;3.17;;
31676;SDS011;18385;51.572;6.578;2022-09-13T00:16:04;6.35;;;3.70;;
31676;SDS011;18385;51.572;6.578;2022-09-13T00:18:36;7.15;;;3.40;;
31676;SDS011;18385;51.572;6.578;2022-09-13T00:21:02;7.60;;;3.53;;
31676;SDS011;18385;51.572;6.578;2022-09-13T00:23:35;5.78;;;3.55;;
31676;SDS011;18385;51.572;6.578;2022-09-13T00:26:08;6.60;;;4.00;;
31676;SDS011;18385;51.572;6.578;2022-09-13T00:28:36;12.02;;;4.35;;
31676;SDS011;18385;51.572;6.578;2022-09-13T00:31:03;9.93;;;4.10;;
31676;SDS011;18385;51.572;6.578;2022-09-13T00:33:31;5.90;;;3.45;;
31676;SDS011;18385;51.572;6.578;2022-09-13T00:35:57;6.38;;;3.90;;
31676;SDS011;18385;51.572;6.578;2022-09-13T00:38:23;6.70;;;3.80;;
31676;SDS011;18385;51.572;6.578;2022-09-13T00:40:49;7.82;;;3.45;;
31676;SDS011;18385;51.572;6.578;2022-09-13T00:43:18;8.23;;;3.75;;
31676;SDS011;18385;51.572;6.578;2022-09-13T00:45:48;7.38;;;3.67;;
31676;SDS011;18385;51.572;6.578;2022-09-13T00:48:18;6.28;;;3.33;;
31676;SDS011;18385;51.572;6.578;2022-09-13T00:50:50;6.70;;;3.22;;
31676;SDS011;18385;51.572;6.578;2022-09-13T00:53:30;7.78;;;3.10;;
31676;SDS011;18385;51.572;6.578;2022-09-13T00:56:02;5.68;;;3.35;;
31676;SDS011;18385;51.572;6.578;2022-09-13T01:01:22;5.88;;;2.83;;
31676;SDS011;18385;51.572;6.578;2022-09-13T01:03:53;5.03;;;3.10;;
31676;SDS011;18385;51.572;6.578;2022-09-13T01:06:24;3.92;;;2.80;;
31676;SDS011;18385;51.572;6.578;2022-09-13T01:08:53;8.48;;;3.30;;
31676;SDS011;18385;51.572;6.578;2022-09-13T01:11:25;5.15;;;3.20;;
31676;SDS011;18385;51.572;6.578;2022-09-13T01:14:19;7.15;;;3.20;;
31676;SDS011;18385;51.572;6.578;2022-09-13T01:16:47;5.05;;;2.85;;
31676;SDS011;18385;51.572;6.578;2022-09-13T01:19:14;5.40;;;3.33;;
31676;SDS011;18385;51.572;6.578;2022-09-13T01:21:48;5.57;;;3.53;;
31676;SDS011;18385;51.572;6.578;2022-09-13T01:27:52;4.60;;;3.08;;
31676;SDS011;18385;51.572;6.578;2022-09-13T01:30:30;7.93;;;3.47;;
31676;SDS011;18385;51.572;6.578;2022-09-13T01:47:17;5.43;;;3.25;;
31676;SDS011;18385;51.572;6.578;2022-09-13T01:55:04;4.28;;;2.67;;
31676;SDS011;18385;51.572;6.578;2022-09-13T01:57:43;4.82;;;2.85;;
31676;SDS011;18385;51.572;6.578;2022-09-13T02:00:16;3.90;;;2.45;;
31676;SDS011;18385;51.572;6.578;2022-09-13T02:08:16;4.63;;;2.30;;
31676;SDS011;18385;51.572;6.578;2022-09-13T02:10:57;4.32;;;2.25;;
31676;SDS011;18385;51.572;6.578;2022-09-13T02:13:34;3.53;;;2.53;;
31676;SDS011;18385;51.572;6.578;2022-09-13T02:16:08;3.97;;;2.25;;
31676;SDS011;18385;51.572;6.578;2022-09-13T02:18:48;3.60;;;2.05;;
31676;SDS011;18385;51.572;6.578;2022-09-13T02:21:20;4.50;;;2.65;;
31676;SDS011;18385;51.572;6.578;2022-09-13T02:24:01;5.00;;;2.35;;
31676;SDS011;18385;51.572;6.578;2022-09-13T02:26:30;3.75;;;2.20;;
31676;SDS011;18385;51.572;6.578;2022-09-13T02:28:59;11.82;;;2.83;;
31676;SDS011;18385;51.572;6.578;2022-09-13T02:31:36;5.03;;;2.88;;
31676;SDS011;18385;51.572;6.578;2022-09-13T02:34:13;4.05;;;2.53;;
31676;SDS011;18385;51.572;6.578;2022-09-13T02:36:45;3.75;;;2.10;;
31676;SDS011;18385;51.572;6.578;2022-09-13T02:39:17;5.65;;;2.20;;
31676;SDS011;18385;51.572;6.578;2022-09-13T02:44:41;4.93;;;2.92;;
31676;SDS011;18385;51.572;6.578;2022-09-13T02:47:15;6.50;;;2.60;;
31676;SDS011;18385;51.572;6.578;2022-09-13T02:53:13;3.50;;;1.95;;
31676;SDS011;18385;51.572;6.578;2022-09-13T02:56:28;4.47;;;2.10;;
31676;SDS011;18385;51.572;6.578;2022-09-13T02:59:02;4.63;;;2.10;;
31676;SDS011;18385;51.572;6.578;2022-09-13T03:01:40;4.90;;;2.78;;
31676;SDS011;18385;51.572;6.578;2022-09-13T03:06:36;5.18;;;2.10;;
31676;SDS011;18385;51.572;6.578;2022-09-13T03:09:02;7.57;;;2.13;;
31676;SDS011;18385;51.572;6.578;2022-09-13T03:11:35;3.05;;;1.92;;
31676;SDS011;18385;51.572;6.578;2022-09-13T03:24:41;4.45;;;2.33;;
31676;SDS011;18385;51.572;6.578;2022-09-13T03:27:34;5.32;;;1.98;;
31676;SDS011;18385;51.572;6.578;2022-09-13T03:30:07;4.53;;;2.13;;
31676;SDS011;18385;51.572;6.578;2022-09-13T03:40:29;3.33;;;2.05;;
31676;SDS011;18385;51.572;6.578;2022-09-13T03:45:47;4.45;;;2.35;;
31676;SDS011;18385;51.572;6.578;2022-09-13T03:48:17;2.95;;;1.95;;
31676;SDS011;18385;51.572;6.578;2022-09-13T03:50:46;4.57;;;2.00;;
31676;SDS011;18385;51.572;6.578;2022-09-13T03:53:14;3.28;;;2.10;;
31676;SDS011;18385;51.572;6.578;2022-09-13T03:55:45;3.72;;;2.05;;
31676;SDS011;18385;51.572;6.578;2022-09-13T03:58:12;4.25;;;2.28;;
31676;SDS011;18385;51.572;6.578;2022-09-13T04:00:40;3.35;;;2.30;;
31676;SDS011;18385;51.572;6.578;2022-09-13T04:03:06;4.68;;;2.50;;
31676;SDS011;18385;51.572;6.578;2022-09-13T04:05:32;3.42;;;2.15;;
31676;SDS011;18385;51.572;6.578;2022-09-13T04:07:59;5.50;;;2.25;;
31676;SDS011;18385;51.572;6.578;2022-09-13T04:10:26;4.35;;;2.22;;
31676;SDS011;18385;51.572;6.578;2022-09-13T04:12:55;10.60;;;2.80;;
31676;SDS011;18385;51.572;6.578;2022-09-13T04:15:21;6.05;;;2.17;;
31676;SDS011;18385;51.572;6.578;2022-09-13T04:17:46;9.02;;;2.30;;
31676;SDS011;18385;51.572;6.578;2022-09-13T04:20:12;4.95;;;2.55;;
31676;SDS011;18385;51.572;6.578;2022-09-13T04:22:38;3.85;;;2.20;;
31676;SDS011;18385;51.572;6.578;2022-09-13T04:25:04;5.85;;;2.80;;
31676;SDS011;18385;51.572;6.578;2022-09-13T04:27:30;6.10;;;2.30;;
31676;SDS011;18385;51.572;6.578;2022-09-13T04:29:56;5.18;;;2.20;;
31676;SDS011;18385;51.572;6.578;2022-09-13T04:32:21;6.72;;;2.70;;
31676;SDS011;18385;51.572;6.578;2022-09-13T04:34:47;8.50;;;1.92;;
31676;SDS011;18385;51.572;6.578;2022-09-13T04:37:13;4.57;;;1.92;;
31676;SDS011;18385;51.572;6.578;2022-09-13T04:39:38;9.77;;;2.50;;
31676;SDS011;18385;51.572;6.578;2022-09-13T04:42:04;5.07;;;2.50;;
31676;SDS011;18385;51.572;6.578;2022-09-13T04:44:31;4.85;;;2.58;;
31676;SDS011;18385;51.572;6.578;2022-09-13T04:46:57;8.32;;;2.55;;
31676;SDS011;18385;51.572;6.578;2022-09-13T04:49:24;4.65;;;2.00;;
31676;SDS011;18385;51.572;6.578;2022-09-13T04:51:49;4.32;;;2.17;;
31676;SDS011;18385;51.572;6.578;2022-09-13T04:54:15;6.05;;;2.42;;
31676;SDS011;18385;51.572;6.578;2022-09-13T04:56:41;14.02;;;2.40;;
31676;SDS011;18385;51.572;6.578;2022-09-13T04:59:11;6.20;;;2.20;;
31676;SDS011;18385;51.572;6.578;2022-09-13T05:01:37;10.10;;;2.40;;
31676;SDS011;18385;51.572;6.578;2022-09-13T05:04:03;8.00;;;2.30;;
31676;SDS011;18385;51.572;6.578;2022-09-13T05:06:30;8.20;;;2.53;;
31676;SDS011;18385;51.572;6.578;2022-09-13T05:08:55;13.57;;;2.63;;
31676;SDS011;18385;51.572;6.578;2022-09-13T05:11:22;11.65;;;2.92;;
31676;SDS011;18385;51.572;6.578;2022-09-13T05:13:49;16.95;;;3.05;;
31676;SDS011;18385;51.572;6.578;2022-09-13T05:16:22;17.27;;;2.60;;
31676;SDS011;18385;51.572;6.578;2022-09-13T05:18:49;5.00;;;2.55;;
31676;SDS011;18385;51.572;6.578;2022-09-13T05:21:16;6.20;;;1.75;;
31676;SDS011;18385;51.572;6.578;2022-09-13T05:23:42;5.72;;;2.70;;
31676;SDS011;18385;51.572;6.578;2022-09-13T05:26:08;6.40;;;2.10;;
31676;SDS011;18385;51.572;6.578;2022-09-13T05:28:35;7.10;;;2.42;;
31676;SDS011;18385;51.572;6.578;2022-09-13T05:33:28;7.18;;;2.78;;
31676;SDS011;18385;51.572;6.578;2022-09-13T05:38:21;10.93;;;2.72;;
31676;SDS011;18385;51.572;6.578;2022-09-13T05:40:47;9.85;;;2.25;;
31676;SDS011;18385;51.572;6.578;2022-09-13T05:43:20;8.10;;;2.45;;
31676;SDS011;18385;51.572;6.578;2022-09-13T05:45:46;9.93;;;2.88;;
31676;SDS011;18385;51.572;6.578;2022-09-13T05:48:11;9.95;;;2.80;;
31676;SDS011;18385;51.572;6.578;2022-09-13T05:50:37;5.28;;;2.30;;
31676;SDS011;18385;51.572;6.578;2022-09-13T05:53:03;15.02;;;3.30;;
31676;SDS011;18385;51.572;6.578;2022-09-13T05:55:29;7.95;;;2.45;;
31676;SDS011;18385;51.572;6.578;2022-09-13T05:57:55;5.35;;;2.72;;
31676;SDS011;18385;51.572;6.578;2022-09-13T06:00:20;7.13;;;2.33;;
31676;SDS011;18385;51.572;6.578;2022-09-13T06:02:46;5.97;;;2.45;;
31676;SDS011;18385;51.572;6.578;2022-09-13T06:05:12;10.73;;;3.30;;
31676;SDS011;18385;51.572;6.578;2022-09-13T06:07:38;3.72;;;2.53;;
31676;SDS011;18385;51.572;6.578;2022-09-13T06:10:05;5.95;;;2.60;;
31676;SDS011;18385;51.572;6.578;2022-09-13T06:12:31;6.65;;;2.22;;
31676;SDS011;18385;51.572;6.578;2022-09-13T06:14:57;5.25;;;2.80;;
31676;SDS011;18385;51.572;6.578;2022-09-13T06:17:23;6.55;;;2.65;;
31676;SDS011;18385;51.572;6.578;2022-09-13T06:19:48;14.25;;;2.55;;
31676;SDS011;18385;51.572;6.578;2022-09-13T06:22:14;7.93;;;3.15;;
31676;SDS011;18385;51.572;6.578;2022-09-13T06:24:39;22.90;;;2.78;;
31676;SDS011;18385;51.572;6.578;2022-09-13T06:27:05;15.95;;;2.92;;
31676;SDS011;18385;51.572;6.578;2022-09-13T06:29:31;7.55;;;2.20;;
31676;SDS011;18385;51.572;6.578;2022-09-13T06:31:56;6.38;;;2.78;;
31676;SDS011;18385;51.572;6.578;2022-09-13T06:34:22;6.85;;;2.40;;
31676;SDS011;18385;51.572;6.578;2022-09-13T06:36:48;5.90;;;2.92;;
31676;SDS011;18385;51.572;6.578;2022-09-13T06:39:14;7.63;;;2.65;;
31676;SDS011;18385;51.572;6.578;2022-09-13T06:41:39;4.32;;;2.38;;
31676;SDS011;18385;51.572;6.578;2022-09-13T06:44:05;6.03;;;2.38;;
31676;SDS011;18385;51.572;6.578;2022-09-13T06:46:33;5.55;;;2.88;;
31676;SDS011;18385;51.572;6.578;2022-09-13T06:49:08;7.20;;;3.25;;
31676;SDS011;18385;51.572;6.578;2022-09-13T06:51:34;4.35;;;2.72;;
31676;SDS011;18385;51.572;6.578;2022-09-13T06:54:01;6.30;;;3.10;;
31676;SDS011;18385;51.572;6.578;2022-09-13T06:56:34;5.75;;;2.95;;
31676;SDS011;18385;51.572;6.578;2022-09-13T06:59:03;6.25;;;2.72;;
31676;SDS011;18385;51.572;6.578;2022-09-13T07:01:32;7.03;;;2.85;;
31676;SDS011;18385;51.572;6.578;2022-09-13T07:03:59;5.25;;;3.00;;
31676;SDS011;18385;51.572;6.578;2022-09-13T07:06:31;5.03;;;3.10;;
31676;SDS011;18385;51.572;6.578;2022-09-13T07:08:58;7.47;;;3.00;;
31676;SDS011;18385;51.572;6.578;2022-09-13T07:11:27;8.63;;;3.10;;
31676;SDS011;18385;51.572;6.578;2022-09-13T07:16:23;4.93;;;3.15;;
31676;SDS011;18385;51.572;6.578;2022-09-13T07:18:51;7.15;;;3.50;;
31676;SDS011;18385;51.572;6.578;2022-09-13T07:21:26;8.80;;;3.72;;
31676;SDS011;18385;51.572;6.578;2022-09-13T07:23:53;5.88;;;3.53;;
31676;SDS011;18385;51.572;6.578;2022-09-13T07:26:20;8.50;;;4.05;;
31676;SDS011;18385;51.572;6.578;2022-09-13T07:28:47;7.63;;;3.83;;
31676;SDS011;18385;51.572;6.578;2022-09-13T07:31:15;10.68;;;4.20;;
31676;SDS011;18385;51.572;6.578;2022-09-13T07:33:58;7.15;;;4.05;;
31676;SDS011;18385;51.572;6.578;2022-09-13T07:36:29;9.73;;;4.57;;
31676;SDS011;18385;51.572;6.578;2022-09-13T07:38:57;10.75;;;4.22;;
31676;SDS011;18385;51.572;6.578;2022-09-13T07:41:24;7.40;;;3.90;;
31676;SDS011;18385;51.572;6.578;2022-09-13T07:43:56;9.00;;;4.53;;
31676;SDS011;18385;51.572;6.578;2022-09-13T07:49:29;8.30;;;3.97;;
31676;SDS011;18385;51.572;6.578;2022-09-13T07:51:55;8.07;;;4.70;;
31676;SDS011;18385;51.572;6.578;2022-09-13T07:54:20;9.30;;;5.05;;
31676;SDS011;18385;51.572;6.578;2022-09-13T07:56:46;9.55;;;5.20;;
31676;SDS011;18385;51.572;6.578;2022-09-13T07:59:14;8.15;;;4.60;;
31676;SDS011;18385;51.572;6.578;2022-09-13T08:01:42;7.13;;;4.75;;
31676;SDS011;18385;51.572;6.578;2022-09-13T08:04:10;10.07;;;5.43;;
31676;SDS011;18385;51.572;6.578;2022-09-13T08:06:38;15.63;;;5.72;;
31676;SDS011;18385;51.572;6.578;2022-09-13T08:09:06;11.95;;;5.40;;
31676;SDS011;18385;51.572;6.578;2022-09-13T08:14:00;10.23;;;5.75;;
31676;SDS011;18385;51.572;6.578;2022-09-13T08:16:28;9.52;;;5.38;;
31676;SDS011;18385;51.572;6.578;2022-09-13T08:18:55;11.27;;;5.45;;
31676;SDS011;18385;51.572;6.578;2022-09-13T08:21:23;7.78;;;4.70;;
31676;SDS011;18385;51.572;6.578;2022-09-13T08:23:53;9.85;;;5.30;;
31676;SDS011;18385;51.572;6.578;2022-09-13T08:26:20;9.23;;;5.47;;
31676;SDS011;18385;51.572;6.578;2022-09-13T08:28:46;7.85;;;4.75;;
31676;SDS011;18385;51.572;6.578;2022-09-13T08:31:16;7.28;;;4.35;;
31676;SDS011;18385;51.572;6.578;2022-09-13T08:33:44;10.10;;;4.57;;
31676;SDS011;18385;51.572;6.578;2022-09-13T08:36:11;8.60;;;4.60;;
31676;SDS011;18385;51.572;6.578;2022-09-13T08:38:37;9.82;;;5.22;;
31676;SDS011;18385;51.572;6.578;2022-09-13T08:41:51;8.05;;;5.10;;
31676;SDS011;18385;51.572;6.578;2022-09-13T08:43:58;12.02;;;5.78;;
31676;SDS011;18385;51.572;6.578;2022-09-13T08:46:40;12.65;;;5.43;;
31676;SDS011;18385;51.572;6.578;2022-09-13T08:49:14;12.85;;;5.72;;
31676;SDS011;18385;51.572;6.578;2022-09-13T08:51:47;11.32;;;6.03;;
31676;SDS011;18385;51.572;6.578;2022-09-13T08:54:16;11.07;;;6.28;;
31676;SDS011;18385;51.572;6.578;2022-09-13T09:02:47;13.07;;;6.63;;
31676;SDS011;18385;51.572;6.578;2022-09-13T09:05:27;11.50;;;6.82;;
31676;SDS011;18385;51.572;6.578;2022-09-13T09:07:58;10.85;;;6.80;;
31676;SDS011;18385;51.572;6.578;2022-09-13T09:10:41;15.75;;;7.18;;
31676;SDS011;18385;51.572;6.578;2022-09-13T09:15:45;12.15;;;6.63;;
31676;SDS011;18385;51.572;6.578;2022-09-13T09:18:23;11.20;;;6.47;;
31676;SDS011;18385;51.572;6.578;2022-09-13T09:20:56;13.55;;;7.40;;
31676;SDS011;18385;51.572;6.578;2022-09-13T09:26:21;14.02;;;8.48;;
31676;SDS011;18385;51.572;6.578;2022-09-13T09:28:54;14.80;;;7.78;;
31676;SDS011;18385;51.572;6.578;2022-09-13T09:40:48;16.77;;;7.70;;
31676;SDS011;18385;51.572;6.578;2022-09-13T09:43:18;13.52;;;7.80;;
31676;SDS011;18385;51.572;6.578;2022-09-13T09:45:46;14.38;;;8.48;;
31676;SDS011;18385;51.572;6.578;2022-09-13T09:48:17;19.13;;;9.32;;
31676;SDS011;18385;51.572;6.578;2022-09-13T09:50:50;14.18;;;7.65;;
31676;SDS011;18385;51.572;6.578;2022-09-13T09:53:22;17.70;;;8.43;;
31676;SDS011;18385;51.572;6.578;2022-09-13T09:58:44;14.00;;;7.60;;
31676;SDS011;18385;51.572;6.578;2022-09-13T10:06:37;19.23;;;9.48;;
31676;SDS011;18385;51.572;6.578;2022-09-13T10:11:37;17.35;;;8.00;;
31676;SDS011;18385;51.572;6.578;2022-09-13T10:14:04;16.23;;;8.45;;
31676;SDS011;18385;51.572;6.578;2022-09-13T10:16:30;16.80;;;8.18;;
31676;SDS011;18385;51.572;6.578;2022-09-13T10:22:04;13.30;;;8.10;;
31676;SDS011;18385;51.572;6.578;2022-09-13T10:24:35;12.32;;;7.50;;
31676;SDS011;18385;51.572;6.578;2022-09-13T10:27:01;17.67;;;8.18;;
31676;SDS011;18385;51.572;6.578;2022-09-13T10:34:32;15.18;;;7.88;;
31676;SDS011;18385;51.572;6.578;2022-09-13T10:37:04;12.85;;;7.35;;
31676;SDS011;18385;51.572;6.578;2022-09-13T10:39:47;16.05;;;8.45;;
31676;SDS011;18385;51.572;6.578;2022-09-13T10:42:21;15.25;;;8.93;;
31676;SDS011;18385;51.572;6.578;2022-09-13T10:45:00;16.35;;;8.18;;
31676;SDS011;18385;51.572;6.578;2022-09-13T10:47:45;18.17;;;9.20;;
31676;SDS011;18385;51.572;6.578;2022-09-13T10:50:24;18.52;;;8.95;;
31676;SDS011;18385;51.572;6.578;2022-09-13T10:53:01;15.20;;;8.10;;
31676;SDS011;18385;51.572;6.578;2022-09-13T10:55:53;16.13;;;9.23;;
31676;SDS011;18385;51.572;6.578;2022-09-13T10:58:19;16.70;;;8.68;;
31676;SDS011;18385;51.572;6.578;2022-09-13T11:09:07;17.35;;;9.30;;
31676;SDS011;18385;51.572;6.578;2022-09-13T11:12:02;16.70;;;8.60;;
31676;SDS011;18385;51.572;6.578;2022-09-13T11:17:35;15.00;;;7.25;;
31676;SDS011;18385;51.572;6.578;2022-09-13T11:20:17;16.52;;;7.15;;
31676;SDS011;18385;51.572;6.578;2022-09-13T11:26:26;10.25;;;5.13;;
31676;SDS011;18385;51.572;6.578;2022-09-13T11:29:03;12.05;;;6.05;;
31676;SDS011;18385;51.572;6.578;2022-09-13T11:31:43;11.23;;;6.57;;
31676;SDS011;18385;51.572;6.578;2022-09-13T11:34:15;15.95;;;6.25;;
31676;SDS011;18385;51.572;6.578;2022-09-13T11:36:56;11.38;;;6.07;;
31676;SDS011;18385;51.572;6.578;2022-09-13T11:39:37;15.23;;;6.70;;
31676;SDS011;18385;51.572;6.578;2022-09-13T11:42:40;15.63;;;7.20;;
31676;SDS011;18385;51.572;6.578;2022-09-13T11:45:27;11.15;;;5.65;;
31676;SDS011;18385;51.572;6.578;2022-09-13T11:50:38;14.48;;;6.57;;
31676;SDS011;18385;51.572;6.578;2022-09-13T11:55:59;16.45;;;7.00;;
31676;SDS011;18385;51.572;6.578;2022-09-13T11:58:33;11.52;;;6.53;;
31676;SDS011;18385;51.572;6.578;2022-09-13T12:01:07;10.32;;;6.22;;
31676;SDS011;18385;51.572;6.578;2022-09-13T12:06:12;15.07;;;6.80;;
31676;SDS011;18385;51.572;6.578;2022-09-13T12:08:47;13.60;;;5.65;;
31676;SDS011;18385;51.572;6.578;2022-09-13T12:11:20;9.25;;;6.32;;
31676;SDS011;18385;51.572;6.578;2022-09-13T12:13:57;13.18;;;6.28;;
31676;SDS011;18385;51.572;6.578;2022-09-13T12:16:36;10.23;;;6.03;;
31676;SDS011;18385;51.572;6.578;2022-09-13T12:22:04;11.52;;;5.75;;
31676;SDS011;18385;51.572;6.578;2022-09-13T12:24:34;8.60;;;5.25;;
31676;SDS011;18385;51.572;6.578;2022-09-13T12:32:45;10.13;;;5.38;;
31676;SDS011;18385;51.572;6.578;2022-09-13T12:35:18;9.60;;;4.95;;
31676;SDS011;18385;51.572;6.578;2022-09-13T12:40:51;13.43;;;5.20;;
31676;SDS011;18385;51.572;6.578;2022-09-13T12:54:40;9.75;;;3.80;;
31676;SDS011;18385;51.572;6.578;2022-09-13T12:57:38;9.60;;;4.35;;
31676;SDS011;18385;51.572;6.578;2022-09-13T13:00:41;8.35;;;3.95;;
31676;SDS011;18385;51.572;6.578;2022-09-13T13:04:03;6.82;;;3.40;;
31676;SDS011;18385;51.572;6.578;2022-09-13T13:06:51;6.28;;;3.25;;
31676;SDS011;18385;51.572;6.578;2022-09-13T13:09:27;5.05;;;2.97;;
31676;SDS011;18385;51.572;6.578;2022-09-13T13:12:07;7.60;;;3.30;;
31676;SDS011;18385;51.572;6.578;2022-09-13T13:14:50;9.93;;;4.30;;
31676;SDS011;18385;51.572;6.578;2022-09-13T13:23:15;7.95;;;3.92;;
31676;SDS011;18385;51.572;6.578;2022-09-13T13:31:10;8.38;;;4.40;;
31676;SDS011;18385;51.572;6.578;2022-09-13T13:36:46;7.55;;;3.53;;
31676;SDS011;18385;51.572;6.578;2022-09-13T13:41:53;7.45;;;3.70;;
31676;SDS011;18385;51.572;6.578;2022-09-13T13:57:15;5.75;;;3.90;;
31676;SDS011;18385;51.572;6.578;2022-09-13T13:59:46;8.30;;;3.72;;
31676;SDS011;18385;51.572;6.578;2022-09-13T14:02:14;5.88;;;4.00;;
31676;SDS011;18385;51.572;6.578;2022-09-13T14:05:21;7.47;;;3.67;;
31676;SDS011;18385;51.572;6.578;2022-09-13T14:13:15;6.43;;;3.60;;
31676;SDS011;18385;51.572;6.578;2022-09-13T14:18:46;6.32;;;4.10;;
31676;SDS011;18385;51.572;6.578;2022-09-13T14:21:28;6.25;;;4.25;;
31676;SDS011;18385;51.572;6.578;2022-09-13T14:26:42;8.27;;;4.03;;
31676;SDS011;18385;51.572;6.578;2022-09-13T14:29:08;6.05;;;3.58;;
31676;SDS011;18385;51.572;6.578;2022-09-13T14:31:39;7.82;;;3.35;;
31676;SDS011;18385;51.572;6.578;2022-09-13T14:34:04;7.68;;;3.92;;
31676;SDS011;18385;51.572;6.578;2022-09-13T14:36:30;6.25;;;3.58;;
31676;SDS011;18385;51.572;6.578;2022-09-13T14:38:57;9.00;;;3.63;;
31676;SDS011;18385;51.572;6.578;2022-09-13T14:41:35;6.93;;;3.57;;
31676;SDS011;18385;51.572;6.578;2022-09-13T14:44:16;6.55;;;3.28;;
31676;SDS011;18385;51.572;6.578;2022-09-13T14:46:45;10.95;;;3.95;;
31676;SDS011;18385;51.572;6.578;2022-09-13T14:49:21;6.03;;;3.00;;
31676;SDS011;18385;51.572;6.578;2022-09-13T14:51:51;6.88;;;3.92;;
31676;SDS011;18385;51.572;6.578;2022-09-13T14:54:30;5.43;;;3.03;;
31676;SDS011;18385;51.572;6.578;2022-09-13T14:57:02;7.05;;;3.67;;
31676;SDS011;18385;51.572;6.578;2022-09-13T14:59:35;4.78;;;3.38;;
31676;SDS011;18385;51.572;6.578;2022-09-13T15:04:41;7.85;;;3.72;;
31676;SDS011;18385;51.572;6.578;2022-09-13T15:07:27;5.70;;;3.17;;
31676;SDS011;18385;51.572;6.578;2022-09-13T15:09:56;6.53;;;3.50;;
31676;SDS011;18385;51.572;6.578;2022-09-13T15:12:31;7.10;;;2.92;;
31676;SDS011;18385;51.572;6.578;2022-09-13T15:15:14;8.38;;;4.03;;
31676;SDS011;18385;51.572;6.578;2022-09-13T15:18:01;4.88;;;2.97;;
31676;SDS011;18385;51.572;6.578;2022-09-13T15:20:28;6.07;;;3.13;;
31676;SDS011;18385;51.572;6.578;2022-09-13T15:23:12;6.50;;;3.72;;
31676;SDS011;18385;51.572;6.578;2022-09-13T15:25:46;5.95;;;3.38;;
31676;SDS011;18385;51.572;6.578;2022-09-13T15:28:19;6.75;;;3.90;;
31676;SDS011;18385;51.572;6.578;2022-09-13T15:30:57;5.07;;;3.10;;
31676;SDS011;18385;51.572;6.578;2022-09-13T15:33:26;6.47;;;3.50;;
31676;SDS011;18385;51.572;6.578;2022-09-13T15:38:54;6.15;;;2.92;;
31676;SDS011;18385;51.572;6.578;2022-09-13T15:41:20;6.25;;;2.67;;
31676;SDS011;18385;51.572;6.578;2022-09-13T15:43:48;7.10;;;3.35;;
31676;SDS011;18385;51.572;6.578;2022-09-13T15:46:15;6.13;;;3.25;;
31676;SDS011;18385;51.572;6.578;2022-09-13T15:48:55;5.38;;;2.55;;
31676;SDS011;18385;51.572;6.578;2022-09-13T15:51:23;3.83;;;2.40;;
31676;SDS011;18385;51.572;6.578;2022-09-13T15:53:49;6.57;;;3.15;;
31676;SDS011;18385;51.572;6.578;2022-09-13T15:56:23;5.30;;;2.78;;
31676;SDS011;18385;51.572;6.578;2022-09-13T15:58:55;4.55;;;2.55;;
31676;SDS011;18385;51.572;6.578;2022-09-13T16:01:20;4.13;;;2.47;;
31676;SDS011;18385;51.572;6.578;2022-09-13T16:03:46;5.47;;;2.50;;
31676;SDS011;18385;51.572;6.578;2022-09-13T16:06:11;5.75;;;2.33;;
31676;SDS011;18385;51.572;6.578;2022-09-13T16:08:37;4.80;;;2.65;;
31676;SDS011;18385;51.572;6.578;2022-09-13T16:11:04;5.13;;;2.70;;
31676;SDS011;18385;51.572;6.578;2022-09-13T16:13:31;4.82;;;2.42;;
31676;SDS011;18385;51.572;6.578;2022-09-13T16:15:57;4.15;;;2.22;;
31676;SDS011;18385;51.572;6.578;2022-09-13T16:18:23;4.63;;;2.42;;
31676;SDS011;18385;51.572;6.578;2022-09-13T16:20:49;4.30;;;2.67;;
31676;SDS011;18385;51.572;6.578;2022-09-13T16:23:15;6.85;;;2.55;;
31676;SDS011;18385;51.572;6.578;2022-09-13T16:25:40;6.25;;;2.50;;
31676;SDS011;18385;51.572;6.578;2022-09-13T16:28:07;5.18;;;2.20;;
31676;SDS011;18385;51.572;6.578;2022-09-13T16:30:37;5.93;;;2.58;;
31676;SDS011;18385;51.572;6.578;2022-09-13T16:33:02;5.35;;;2.15;;
31676;SDS011;18385;51.572;6.578;2022-09-13T16:35:29;3.00;;;2.10;;
31676;SDS011;18385;51.572;6.578;2022-09-13T16:37:57;3.85;;;2.00;;
31676;SDS011;18385;51.572;6.578;2022-09-13T16:40:22;5.25;;;1.92;;
31676;SDS011;18385;51.572;6.578;2022-09-13T16:42:48;3.15;;;1.70;;
31676;SDS011;18385;51.572;6.578;2022-09-13T16:45:14;2.90;;;1.58;;
31676;SDS011;18385;51.572;6.578;2022-09-13T16:47:40;3.47;;;1.42;;
31676;SDS011;18385;51.572;6.578;2022-09-13T16:50:06;4.10;;;1.80;;
31676;SDS011;18385;51.572;6.578;2022-09-13T16:52:33;5.35;;;2.20;;
31676;SDS011;18385;51.572;6.578;2022-09-13T16:55:00;2.83;;;1.50;;
31676;SDS011;18385;51.572;6.578;2022-09-13T16:57:26;3.88;;;1.40;;
31676;SDS011;18385;51.572;6.578;2022-09-13T16:59:52;3.17;;;1.27;;
31676;SDS011;18385;51.572;6.578;2022-09-13T17:02:20;2.25;;;1.30;;
31676;SDS011;18385;51.572;6.578;2022-09-13T17:04:46;3.38;;;1.20;;
31676;SDS011;18385;51.572;6.578;2022-09-13T17:07:12;2.15;;;1.55;;
31676;SDS011;18385;51.572;6.578;2022-09-13T17:09:39;3.17;;;1.45;;
31676;SDS011;18385;51.572;6.578;2022-09-13T17:12:06;2.90;;;1.77;;
31676;SDS011;18385;51.572;6.578;2022-09-13T17:14:33;1.73;;;1.23;;
31676;SDS011;18385;51.572;6.578;2022-09-13T17:16:59;4.78;;;1.35;;
31676;SDS011;18385;51.572;6.578;2022-09-13T17:19:27;3.75;;;1.50;;
31676;SDS011;18385;51.572;6.578;2022-09-13T17:21:55;4.50;;;1.10;;
31676;SDS011;18385;51.572;6.578;2022-09-13T17:24:22;2.30;;;1.30;;
31676;SDS011;18385;51.572;6.578;2022-09-13T17:26:48;3.58;;;2.17;;
31676;SDS011;18385;51.572;6.578;2022-09-13T17:29:14;4.82;;;1.30;;
31676;SDS011;18385;51.572;6.578;2022-09-13T17:31:41;2.35;;;1.20;;
31676;SDS011;18385;51.572;6.578;2022-09-13T17:34:08;2.30;;;1.17;;
31676;SDS011;18385;51.572;6.578;2022-09-13T17:36:34;1.63;;;0.80;;
31676;SDS011;18385;51.572;6.578;2022-09-13T17:39:00;3.58;;;0.90;;
31676;SDS011;18385;51.572;6.578;2022-09-13T17:41:26;2.17;;;0.80;;
31676;SDS011;18385;51.572;6.578;2022-09-13T17:43:52;3.53;;;1.38;;
31676;SDS011;18385;51.572;6.578;2022-09-13T17:46:19;2.25;;;0.70;;
31676;SDS011;18385;51.572;6.578;2022-09-13T17:48:47;3.80;;;0.77;;
31676;SDS011;18385;51.572;6.578;2022-09-13T17:51:15;1.95;;;0.95;;
31676;SDS011;18385;51.572;6.578;2022-09-13T17:53:43;2.13;;;0.60;;
31676;SDS011;18385;51.572;6.578;2022-09-13T17:56:17;3.15;;;0.85;;
31676;SDS011;18385;51.572;6.578;2022-09-13T17:58:44;0.70;;;0.60;;
31676;SDS011;18385;51.572;6.578;2022-09-13T18:01:10;1.73;;;0.50;;
31676;SDS011;18385;51.572;6.578;2022-09-13T18:03:37;3.78;;;0.60;;
31676;SDS011;18385;51.572;6.578;2022-09-13T18:06:03;4.82;;;0.70;;
31676;SDS011;18385;51.572;6.578;2022-09-13T18:08:32;4.15;;;0.60;;
31676;SDS011;18385;51.572;6.578;2022-09-13T18:11:02;1.73;;;0.55;;
31676;SDS011;18385;51.572;6.578;2022-09-13T18:13:34;4.00;;;0.95;;
31676;SDS011;18385;51.572;6.578;2022-09-13T18:16:04;2.45;;;0.90;;
31676;SDS011;18385;51.572;6.578;2022-09-13T18:18:35;2.25;;;0.70;;
31676;SDS011;18385;51.572;6.578;2022-09-13T18:21:02;3.45;;;0.85;;
31676;SDS011;18385;51.572;6.578;2022-09-13T18:23:29;2.35;;;0.60;;
31676;SDS011;18385;51.572;6.578;2022-09-13T18:25:59;3.00;;;0.70;;
31676;SDS011;18385;51.572;6.578;2022-09-13T18:28:27;1.10;;;0.50;;
31676;SDS011;18385;51.572;6.578;2022-09-13T18:30:54;2.70;;;0.50;;
31676;SDS011;18385;51.572;6.578;2022-09-13T18:33:21;1.58;;;0.52;;